• Join FlightAware (Why Join?)
  • Login
  • US Flag 
08:08PM EDT


 

Airport Tracker/Info


-or-


 

Live Flight TrackerFlight Track Log ✈ N244A ✈ 31-Aug-2014 ✈ KPDK - KBWI

Flight Track Log - Related Links

Times and Time Zones

All times are in EDT time to prevent confusion due to time zone crossing. See the N244A flight status page for this flight to view local times or setup timezone preferences in your user account.

Time Position Orientation Groundspeed Altitude Reporting Facility
EDT Latitude Longitude Course Direction KTS MPH feet Rate Location/Type
07:31PM 33.8333 -84.2667 76° East 228 262 2,900  Level Atlanta TRACON
07:32PM 33.8500 -84.1833 76° East 275 316 5,000 1,080 Climbing Atlanta TRACON
07:33PM 33.8667 -84.0833 79° East 310 357 5,000 720 Level Atlanta TRACON
07:34PM 33.8778 -83.9611 84° East 309 356 6,800 1,140 Climbing Atlanta Center
07:35PM 33.8900 -83.8536 82° East 303 349 7,900 1,980 Climbing Atlanta Center
07:36PM 33.9108 -83.7483 77° East 314 361 10,800 2,400 Climbing Atlanta Center
07:37PM 33.9689 -83.6506 54° Northeast 322 371 12,700 2,100 Climbing Atlanta Center
07:38PM 34.0333 -83.5500 52° Northeast 349 402 15,000 2,220 Climbing Atlanta Center
07:39PM 34.0933 -83.4517 54° Northeast 366 421 17,200 1,740 Climbing Atlanta Center
07:40PM 34.1639 -83.3458 51° Northeast 378 435 18,500 1,500 Climbing Atlanta Center
07:41PM 34.2300 -83.2372 54° Northeast 388 447 20,300 1,860 Climbing Atlanta Center
07:42PM 34.2981 -83.1261 53° Northeast 402 463 22,300 1,500 Climbing Atlanta Center
07:43PM 34.3658 -83.0094 55° Northeast 414 476 23,400 1,020 Climbing Atlanta Center
07:44PM 34.4400 -82.8928 52° Northeast 424 488 24,400 960 Climbing Atlanta Center
07:45PM 34.5183 -82.7783 50° Northeast 431 496 25,400 900 Climbing Atlanta Center
07:46PM 34.5878 -82.6561 55° Northeast 437 503 26,300 900 Climbing Atlanta Center
07:47PM 34.6697 -82.5258 53° Northeast 437 503 27,300 900 Climbing Atlanta Center
07:48PM 34.7475 -82.4031 52° Northeast 442 509 28,200 840 Climbing Atlanta Center
07:49PM 34.8211 -82.2803 54° Northeast 442 509 29,000 660 Climbing Atlanta Center
07:50PM 34.8964 -82.1522 54° Northeast 447 514 29,600 600 Climbing Atlanta Center
07:51PM 34.9717 -82.0311 53° Northeast 452 520 30,300 660 Climbing Atlanta Center
07:52PM 35.0467 -81.9050 54° Northeast 452 520 31,000 660 Climbing Atlanta Center
07:53PM 35.1172 -81.7739 57° Northeast 457 526 31,700 600 Climbing Atlanta Center
07:54PM 35.1858 -81.6397 58° Northeast 457 526 32,300 600 Climbing Atlanta Center
07:55PM 35.2581 -81.5081 56° Northeast 457 526 33,000 600 Climbing Atlanta Center
07:56PM 35.3264 -81.3736 58° Northeast 463 533 33,500 600 Climbing Atlanta Center
07:57PM 35.3922 -81.2389 59° Northeast 463 533 34,200 660 Climbing Atlanta Center
07:58PM 35.4600 -81.1039 58° Northeast 463 533 34,900 360 Climbing Atlanta Center
07:59PM 35.5278 -80.9792 56° Northeast 468 539 35,000  Climbing Atlanta Center
08:00PM 35.5994 -80.8436 57° Northeast 468 539 35,000  Level Atlanta Center
08:01PM 35.6731 -80.7053 57° Northeast 474 545 35,000  Level Atlanta Center
08:02PM 35.7464 -80.5642 57° Northeast 479 551 35,000  Level Atlanta Center
08:04PM 35.8900 -80.3253 53° Northeast 491 565 35,000  Level Washington Center
08:05PM 35.9844 -80.2036 46° Northeast 491 565 35,000  Level Washington Center
08:06PM 36.0619 -80.0792 52° Northeast 487 560 35,000  Level Washington Center
08:07PM 36.1556 -79.9119 55° Northeast 491 565 35,000  Level Washington Center
08:08PM 36.2319 -79.7692 56° Northeast 493 567 35,000  Level Washington Center
08:09PM 36.3067 -79.6281 57° Northeast 492 566 35,000  Level Washington Center
08:10PM 36.3828 -79.4867 56° Northeast 492 566 35,000  Level Washington Center
08:11PM 36.4658 -79.3278 57° Northeast 491 565 35,000 -540 Level Washington Center
08:12PM 36.5414 -79.1864 56° Northeast 491 565 34,000 -720 Descending Washington Center
08:13PM 36.6111 -79.0564 56° Northeast 499 574 33,600 -1,560 Descending Washington Center
08:14PM 36.6967 -78.8881 58° Northeast 521 600 30,800 -2,280 Descending Washington Center
08:16PM 36.7767 -78.7381 56° Northeast 525 604 29,000 -900 Descending Washington Center
08:17PM 36.8319 -78.5872 65° Northeast 481 554 29,000  Level Washington Center
08:18PM 36.8672 -78.4281 74° East 442 509 29,000  Level Washington Center
08:19PM 36.8975 -78.2903 75° East 424 488 29,000  Level Washington Center
08:20PM 36.9253 -78.1531 76° East 412 474 29,000  Level Washington Center
08:21PM 36.9486 -77.9839 80° East 414 476 29,000 -480 Level Washington Center
08:22PM 36.9567 -77.8347 86° East 432 497 28,100 -540 Descending Washington Center
08:23PM 37.0300 -77.7233 50° Northeast 419 482 28,000 -120 Descending Washington Center
08:24PM 37.1225 -77.6406 36° Northeast 411 473 27,900 -1,020 Descending Washington Center
08:25PM 37.2269 -77.5728 27° Northeast 423 487 26,000 -1,440 Descending Washington Center
08:26PM 37.3419 -77.5956 351° North 422 486 25,000 -1,320 Descending Washington Center
08:27PM 37.4525 -77.6208 350° North 410 472 23,300 -1,020 Descending Washington Center
08:28PM 37.5794 -77.6386 354° North 383 441 23,000 -180 Descending Washington Center
08:29PM 37.6781 -77.6394 360° North 363 418 23,000  Level Washington Center
08:30PM 37.7778 -77.6036 16° North 370 426 23,000  Level Washington Center
08:31PM 37.8617 -77.5089 42° Northeast 397 457 23,000 -420 Level Washington Center
08:32PM 37.9469 -77.4194 40° Northeast 402 463 22,200 -840 Descending Washington Center
08:33PM 38.0150 -77.3114 51° Northeast 404 465 21,300 -960 Descending Washington Center
08:34PM 38.0469 -77.1625 75° East 399 459 20,300 -1,500 Descending Washington Center
08:35PM 38.1497 -77.1083 23° Northeast 384 442 18,300 -1,740 Descending Washington Center
08:36PM 38.2458 -77.1217 354° North 355 409 16,800 -1,560 Descending Washington Center
08:37PM 38.3303 -77.1344 353° North 337 388 15,100 -1,740 Descending Washington Center
08:38PM 38.4197 -77.1253 North 330 380 13,300 -2,040 Descending Washington Center
08:39PM 38.5214 -77.0750 21° North 349 402 10,900 -1,140 Descending Washington Center
08:40PM 38.5494 -76.9661 72° East 331 381 11,000 -360 Climbing Washington Center
08:41PM 38.5467 -76.8531 92° East 325 374 10,200 -1,140 Descending Washington Center
08:42PM 38.5375 -76.7342 96° East 343 395 8,700 -1,500 Descending Washington Center
08:43PM 38.6125 -76.6844 27° Northeast 325 374 7,200 -1,320 Descending Washington Center
08:44PM 38.6906 -76.6583 15° North 302 348 6,000 -600 Descending Washington Center
08:45PM 38.7514 -76.5908 41° Northeast 295 339 6,000  Level Washington Center
08:46PM 38.8278 -76.5267 33° Northeast 296 341 6,000 -600 Level Washington Center
08:47PM 38.9000 -76.5333 356° North 285 328 4,900 -1,080 Descending Potomac TRACON
08:48PM 38.9667 -76.5333 360° North 255 293 4,000 -480 Descending Potomac TRACON
08:49PM 39.0167 -76.4833 38° Northeast 210 242 4,000  Level Potomac TRACON
08:50PM 39.0667 -76.4333 38° Northeast 213 245 4,000  Level Potomac TRACON
08:51PM 39.0833 -76.3667 72° East 199 229 4,000  Level Potomac TRACON
08:52PM 39.0667 -76.3000 108° East 200 230 4,000  Level Potomac TRACON
08:54PM 39.0622 -76.2181 94° East 201 231 4,000 -300 Level Washington Center
08:55PM 39.0861 -76.1519 65° Northeast 210 242 3,400 -540 Descending Washington Center
08:56PM 39.1386 -76.1739 342° North 204 235 3,000 -420 Descending Washington Center
08:57PM 39.1500 -76.2242 286° West 177 204 2,600 -540 Descending Washington Center
08:58PM 39.1494 -76.2789 269° West 162 186 2,000 -300 Descending Washington Center
08:59PM 39.1533 -76.3325 275° West 154 177 2,000  Level Washington Center
09:00PM 39.1567 -76.3808 275° West 143 165 2,000 -180 Level Washington Center
09:01PM 39.1589 -76.4258 274° West 133 153 1,700 -300 Descending Washington Center
09:02PM 39.1619 -76.4739 275° West 132 152 1,500 -120 Descending Washington Center
09:03PM 39.1644 -76.5272 273° West 139 160 1,500 -180 Level Washington Center
09:04PM 39.1692 -76.5842 276° West 139 160 1,200 -480 Descending Washington Center
09:05PM 39.1711 -76.6275 273° West 129 148 600 -420 Descending Washington Center
09:06PM 39.1739 -76.6722 275° West 129 148 400 -240 Descending Washington Center